Terminal Aerodrome Forecast
Issued by NWS Omaha/Valley, NE

Home | Current Version | Previous Version | Text Only | Print | Product List | Glossary On
Versions: 1 2 3 4 5 6 7 8 9 10 11 12 13 14 15 16 17 18 19 20 21 22 23 24 25 26 27 28 29 30 31 32 33 34 35
382
FTUS43 KOAX 102320
TAFLNK
TAF
KLNK 102320Z 1100/1124 06007KT P6SM SCT250
     FM110400 03007KT P6SM SCT015 BKN250
      TEMPO 1104/1106 OVC015
     FM110600 04006KT P6SM OVC015
      TEMPO 1109/1113 5SM BR
     FM111800 17010KT P6SM OVC035=

USA.gov is the U.S. government's official web portal to all federal, state and local government web resources and services.